Current | Forecast
Updated: 11:30 AM +04 on June 18, 2018
Observed at Dalakovo, Russia
Temperature 63°F
Humidity 94%
Dew Point 61°F
Wind East at 9 mph
Pressure 29.83 in (Steady)
Conditions Light Rain Showers
Visibility 4.3 miles
UV 5 out of 16
Clouds Scattered Clouds (SCT) : 600 ft
Mostly Cloudy (BKN) : 1400 ft
Yesterday's Maximum 72°F
Yesterday's Minimum 63°F approx.
Yesterday's Cooling Degree Days 2 approx.
Sunrise4:16 AM MSK
Sunset7:43 PM MSK
Moon Rise9:25 AM MSK
Moon Set11:32 PM MSK
Moon PhaseMoon Phase
Waxing Crescent
Raw METARMETAR URMO 180730Z 08004MPS 7000 -SHRA SCT006 BKN014CB 17/16 Q1010 R09/010070 NOSIG RMK QFE714/0952


Monday
. High: 69° F.
Tuesday
. High: 64° F.
Wednesday
. High: 55° F.
Thursday
. High: 64° F.
Friday
. High: 60° F.
Saturday
. High: 62° F.
Sunday
. High: 66° F.
Monday
. High: 69° F.

Units: English | Metric

Find the Weather for any City, State or Zipcode, or Country:

U.S. State List | Severe Weather | Tropical Storms | Ski Conditions
United States | Canada | Central America | South America | Asia | Europe | Australia | Africa | Islands

Weather Underground

© Copyright 2018
The Weather Company, LLC